sensor_id;sensor_type;location;lat;lon;timestamp;temperature;humidity
4354;DHT22;11018;51.258;6.806;2023-09-08T00:01:52;19.30;43.50
4354;DHT22;11018;51.258;6.806;2023-09-08T00:04:17;19.50;43.10
4354;DHT22;11018;51.258;6.806;2023-09-08T00:06:45;19.40;42.60
4354;DHT22;11018;51.258;6.806;2023-09-08T00:09:11;19.30;43.20
4354;DHT22;11018;51.258;6.806;2023-09-08T00:11:36;19.30;43.30
4354;DHT22;11018;51.258;6.806;2023-09-08T00:14:02;19.30;43.60
4354;DHT22;11018;51.258;6.806;2023-09-08T00:16:29;19.40;44.00
4354;DHT22;11018;51.258;6.806;2023-09-08T00:18:55;19.60;43.70
4354;DHT22;11018;51.258;6.806;2023-09-08T00:21:20;19.40;44.00
4354;DHT22;11018;51.258;6.806;2023-09-08T00:23:46;19.20;45.10
4354;DHT22;11018;51.258;6.806;2023-09-08T00:26:12;19.00;46.50
4354;DHT22;11018;51.258;6.806;2023-09-08T00:28:37;19.00;46.90
4354;DHT22;11018;51.258;6.806;2023-09-08T00:31:03;18.80;47.30
4354;DHT22;11018;51.258;6.806;2023-09-08T00:33:30;18.80;47.70
4354;DHT22;11018;51.258;6.806;2023-09-08T00:35:55;18.70;48.20
4354;DHT22;11018;51.258;6.806;2023-09-08T00:38:23;18.70;48.00
4354;DHT22;11018;51.258;6.806;2023-09-08T00:40:48;18.80;47.60
4354;DHT22;11018;51.258;6.806;2023-09-08T00:43:14;18.80;47.30
4354;DHT22;11018;51.258;6.806;2023-09-08T00:45:42;18.80;46.80
4354;DHT22;11018;51.258;6.806;2023-09-08T00:48:08;18.90;47.00
4354;DHT22;11018;51.258;6.806;2023-09-08T00:50:35;18.80;47.30
4354;DHT22;11018;51.258;6.806;2023-09-08T00:53:01;18.80;47.70
4354;DHT22;11018;51.258;6.806;2023-09-08T00:55:27;18.80;48.00
4354;DHT22;11018;51.258;6.806;2023-09-08T00:57:53;18.80;48.50
4354;DHT22;11018;51.258;6.806;2023-09-08T01:00:18;18.80;48.20
4354;DHT22;11018;51.258;6.806;2023-09-08T01:02:45;18.70;48.80
4354;DHT22;11018;51.258;6.806;2023-09-08T01:05:11;18.70;49.50
4354;DHT22;11018;51.258;6.806;2023-09-08T01:07:37;18.60;49.90
4354;DHT22;11018;51.258;6.806;2023-09-08T01:10:03;18.50;51.10
4354;DHT22;11018;51.258;6.806;2023-09-08T01:12:31;18.50;51.80
4354;DHT22;11018;51.258;6.806;2023-09-08T01:14:57;18.40;52.50
4354;DHT22;11018;51.258;6.806;2023-09-08T01:17:22;18.40;53.20
4354;DHT22;11018;51.258;6.806;2023-09-08T01:19:49;18.40;53.10
4354;DHT22;11018;51.258;6.806;2023-09-08T01:22:44;18.40;53.60
4354;DHT22;11018;51.258;6.806;2023-09-08T01:25:15;18.50;53.70
4354;DHT22;11018;51.258;6.806;2023-09-08T01:27:48;18.40;53.90
4354;DHT22;11018;51.258;6.806;2023-09-08T01:30:15;18.50;54.10
4354;DHT22;11018;51.258;6.806;2023-09-08T01:32:41;18.40;54.20
4354;DHT22;11018;51.258;6.806;2023-09-08T01:35:08;18.30;54.80
4354;DHT22;11018;51.258;6.806;2023-09-08T01:37:34;18.20;55.80
4354;DHT22;11018;51.258;6.806;2023-09-08T01:40:00;18.10;56.60
4354;DHT22;11018;51.258;6.806;2023-09-08T01:42:25;18.00;56.90
4354;DHT22;11018;51.258;6.806;2023-09-08T01:44:51;18.00;57.80
4354;DHT22;11018;51.258;6.806;2023-09-08T01:47:16;17.90;58.30
4354;DHT22;11018;51.258;6.806;2023-09-08T01:49:42;17.90;58.70
4354;DHT22;11018;51.258;6.806;2023-09-08T01:52:07;17.90;58.90
4354;DHT22;11018;51.258;6.806;2023-09-08T01:54:33;17.90;59.60
4354;DHT22;11018;51.258;6.806;2023-09-08T01:56:58;17.90;59.60
4354;DHT22;11018;51.258;6.806;2023-09-08T01:59:24;17.90;59.60
4354;DHT22;11018;51.258;6.806;2023-09-08T02:01:50;18.10;59.10
4354;DHT22;11018;51.258;6.806;2023-09-08T02:04:15;18.00;58.70
4354;DHT22;11018;51.258;6.806;2023-09-08T02:06:41;17.90;60.40
4354;DHT22;11018;51.258;6.806;2023-09-08T02:09:08;17.80;61.70
4354;DHT22;11018;51.258;6.806;2023-09-08T02:11:35;17.70;62.00
4354;DHT22;11018;51.258;6.806;2023-09-08T02:14:00;17.60;63.40
4354;DHT22;11018;51.258;6.806;2023-09-08T02:16:26;17.50;64.30
4354;DHT22;11018;51.258;6.806;2023-09-08T02:18:51;17.40;65.60
4354;DHT22;11018;51.258;6.806;2023-09-08T02:21:17;17.40;66.40
4354;DHT22;11018;51.258;6.806;2023-09-08T02:23:42;17.40;67.70
4354;DHT22;11018;51.258;6.806;2023-09-08T02:26:08;17.50;66.30
4354;DHT22;11018;51.258;6.806;2023-09-08T02:28:33;17.40;67.20
4354;DHT22;11018;51.258;6.806;2023-09-08T02:30:59;17.40;68.20
4354;DHT22;11018;51.258;6.806;2023-09-08T02:33:25;17.40;68.20
4354;DHT22;11018;51.258;6.806;2023-09-08T02:35:51;17.40;68.50
4354;DHT22;11018;51.258;6.806;2023-09-08T02:38:17;17.30;69.00
4354;DHT22;11018;51.258;6.806;2023-09-08T02:40:43;17.20;70.40
4354;DHT22;11018;51.258;6.806;2023-09-08T02:43:08;17.20;71.00
4354;DHT22;11018;51.258;6.806;2023-09-08T02:45:34;17.10;72.00
4354;DHT22;11018;51.258;6.806;2023-09-08T02:48:00;17.10;72.50
4354;DHT22;11018;51.258;6.806;2023-09-08T02:50:25;17.00;74.30
4354;DHT22;11018;51.258;6.806;2023-09-08T02:52:51;17.20;73.20
4354;DHT22;11018;51.258;6.806;2023-09-08T02:55:16;17.40;71.70
4354;DHT22;11018;51.258;6.806;2023-09-08T02:57:42;17.50;68.70
4354;DHT22;11018;51.258;6.806;2023-09-08T03:00:07;17.50;67.90
4354;DHT22;11018;51.258;6.806;2023-09-08T03:02:33;17.50;69.70
4354;DHT22;11018;51.258;6.806;2023-09-08T03:05:00;17.70;67.50
4354;DHT22;11018;51.258;6.806;2023-09-08T03:07:28;17.70;67.00
4354;DHT22;11018;51.258;6.806;2023-09-08T03:09:54;17.50;68.60
4354;DHT22;11018;51.258;6.806;2023-09-08T03:12:19;17.40;69.20
4354;DHT22;11018;51.258;6.806;2023-09-08T03:14:45;17.40;69.30
4354;DHT22;11018;51.258;6.806;2023-09-08T03:17:11;17.30;70.40
4354;DHT22;11018;51.258;6.806;2023-09-08T03:19:36;17.30;70.60
4354;DHT22;11018;51.258;6.806;2023-09-08T03:22:02;17.20;71.40
4354;DHT22;11018;51.258;6.806;2023-09-08T03:24:28;17.20;71.30
4354;DHT22;11018;51.258;6.806;2023-09-08T03:26:53;17.20;72.00
4354;DHT22;11018;51.258;6.806;2023-09-08T03:29:19;17.20;72.50
4354;DHT22;11018;51.258;6.806;2023-09-08T03:31:45;17.10;72.90
4354;DHT22;11018;51.258;6.806;2023-09-08T03:34:10;17.10;73.20
4354;DHT22;11018;51.258;6.806;2023-09-08T03:36:36;17.20;72.00
4354;DHT22;11018;51.258;6.806;2023-09-08T03:39:02;17.20;71.70
4354;DHT22;11018;51.258;6.806;2023-09-08T03:41:28;17.20;71.10
4354;DHT22;11018;51.258;6.806;2023-09-08T03:43:53;17.30;70.50
4354;DHT22;11018;51.258;6.806;2023-09-08T03:46:19;17.30;69.50
4354;DHT22;11018;51.258;6.806;2023-09-08T03:48:45;17.30;68.90
4354;DHT22;11018;51.258;6.806;2023-09-08T03:51:10;17.40;68.60
4354;DHT22;11018;51.258;6.806;2023-09-08T03:53:36;17.40;68.40
4354;DHT22;11018;51.258;6.806;2023-09-08T03:56:01;17.40;68.80
4354;DHT22;11018;51.258;6.806;2023-09-08T03:58:27;17.30;69.20
4354;DHT22;11018;51.258;6.806;2023-09-08T04:00:52;17.30;70.00
4354;DHT22;11018;51.258;6.806;2023-09-08T04:03:18;17.30;69.80
4354;DHT22;11018;51.258;6.806;2023-09-08T04:05:44;17.30;69.70
4354;DHT22;11018;51.258;6.806;2023-09-08T04:08:09;17.30;70.20
4354;DHT22;11018;51.258;6.806;2023-09-08T04:10:35;17.30;69.90
4354;DHT22;11018;51.258;6.806;2023-09-08T04:13:00;17.30;69.60
4354;DHT22;11018;51.258;6.806;2023-09-08T04:15:26;17.30;69.60
4354;DHT22;11018;51.258;6.806;2023-09-08T04:17:51;17.30;70.00
4354;DHT22;11018;51.258;6.806;2023-09-08T04:20:17;17.30;69.70
4354;DHT22;11018;51.258;6.806;2023-09-08T04:22:43;17.30;69.10
4354;DHT22;11018;51.258;6.806;2023-09-08T04:25:09;17.30;68.70
4354;DHT22;11018;51.258;6.806;2023-09-08T04:27:35;17.30;68.40
4354;DHT22;11018;51.258;6.806;2023-09-08T04:30:03;17.30;69.20
4354;DHT22;11018;51.258;6.806;2023-09-08T04:32:28;17.30;69.40
4354;DHT22;11018;51.258;6.806;2023-09-08T04:34:54;17.20;70.40
4354;DHT22;11018;51.258;6.806;2023-09-08T04:37:19;17.30;69.10
4354;DHT22;11018;51.258;6.806;2023-09-08T04:39:45;17.30;68.40
4354;DHT22;11018;51.258;6.806;2023-09-08T04:42:10;17.40;67.80
4354;DHT22;11018;51.258;6.806;2023-09-08T04:44:36;17.30;67.90
4354;DHT22;11018;51.258;6.806;2023-09-08T04:47:02;17.30;69.00
4354;DHT22;11018;51.258;6.806;2023-09-08T04:49:27;17.30;68.90
4354;DHT22;11018;51.258;6.806;2023-09-08T04:51:54;17.30;68.70
4354;DHT22;11018;51.258;6.806;2023-09-08T04:54:19;17.30;67.90
4354;DHT22;11018;51.258;6.806;2023-09-08T04:56:45;17.30;68.20
4354;DHT22;11018;51.258;6.806;2023-09-08T04:59:11;17.30;68.10
4354;DHT22;11018;51.258;6.806;2023-09-08T05:01:36;17.30;68.30
4354;DHT22;11018;51.258;6.806;2023-09-08T05:04:03;17.20;68.10
4354;DHT22;11018;51.258;6.806;2023-09-08T05:06:29;17.20;69.00
4354;DHT22;11018;51.258;6.806;2023-09-08T05:08:55;17.30;69.20
4354;DHT22;11018;51.258;6.806;2023-09-08T05:11:20;17.20;69.50
4354;DHT22;11018;51.258;6.806;2023-09-08T05:13:46;17.20;69.10
4354;DHT22;11018;51.258;6.806;2023-09-08T05:16:12;17.20;69.00
4354;DHT22;11018;51.258;6.806;2023-09-08T05:18:41;17.20;69.50
4354;DHT22;11018;51.258;6.806;2023-09-08T05:21:07;17.20;69.00
4354;DHT22;11018;51.258;6.806;2023-09-08T05:23:33;17.20;69.20
4354;DHT22;11018;51.258;6.806;2023-09-08T05:26:00;17.20;68.20
4354;DHT22;11018;51.258;6.806;2023-09-08T05:28:25;17.30;68.20
4354;DHT22;11018;51.258;6.806;2023-09-08T05:30:52;17.30;68.20
4354;DHT22;11018;51.258;6.806;2023-09-08T05:33:17;17.30;67.70
4354;DHT22;11018;51.258;6.806;2023-09-08T05:35:44;17.40;67.20
4354;DHT22;11018;51.258;6.806;2023-09-08T05:38:10;17.40;66.90
4354;DHT22;11018;51.258;6.806;2023-09-08T05:40:35;17.50;66.70
4354;DHT22;11018;51.258;6.806;2023-09-08T05:43:01;17.50;65.30
4354;DHT22;11018;51.258;6.806;2023-09-08T05:45:27;17.60;64.70
4354;DHT22;11018;51.258;6.806;2023-09-08T05:47:53;17.60;64.50
4354;DHT22;11018;51.258;6.806;2023-09-08T05:50:19;17.60;64.10
4354;DHT22;11018;51.258;6.806;2023-09-08T05:52:44;17.70;64.20
4354;DHT22;11018;51.258;6.806;2023-09-08T05:55:10;17.70;63.40
4354;DHT22;11018;51.258;6.806;2023-09-08T05:57:36;17.80;61.60
4354;DHT22;11018;51.258;6.806;2023-09-08T06:00:05;17.90;61.40
4354;DHT22;11018;51.258;6.806;2023-09-08T06:02:31;17.90;60.40
4354;DHT22;11018;51.258;6.806;2023-09-08T06:04:57;18.00;60.10
4354;DHT22;11018;51.258;6.806;2023-09-08T06:07:23;18.10;59.80
4354;DHT22;11018;51.258;6.806;2023-09-08T06:09:48;18.10;59.00
4354;DHT22;11018;51.258;6.806;2023-09-08T06:12:14;18.20;59.10
4354;DHT22;11018;51.258;6.806;2023-09-08T06:14:39;18.20;58.30
4354;DHT22;11018;51.258;6.806;2023-09-08T06:17:05;18.30;58.40
4354;DHT22;11018;51.258;6.806;2023-09-08T06:19:30;18.40;58.20
4354;DHT22;11018;51.258;6.806;2023-09-08T06:21:56;18.40;57.60
4354;DHT22;11018;51.258;6.806;2023-09-08T06:24:21;18.50;56.80
4354;DHT22;11018;51.258;6.806;2023-09-08T06:26:47;18.60;55.70
4354;DHT22;11018;51.258;6.806;2023-09-08T06:29:14;18.60;54.30
4354;DHT22;11018;51.258;6.806;2023-09-08T06:31:40;18.80;53.80
4354;DHT22;11018;51.258;6.806;2023-09-08T06:34:06;18.90;51.80
4354;DHT22;11018;51.258;6.806;2023-09-08T06:36:31;19.00;51.40
4354;DHT22;11018;51.258;6.806;2023-09-08T06:38:57;19.00;51.30
4354;DHT22;11018;51.258;6.806;2023-09-08T06:41:22;19.20;50.80
4354;DHT22;11018;51.258;6.806;2023-09-08T06:43:49;19.30;50.40
4354;DHT22;11018;51.258;6.806;2023-09-08T06:46:14;19.30;50.60
4354;DHT22;11018;51.258;6.806;2023-09-08T06:48:40;19.40;49.20
4354;DHT22;11018;51.258;6.806;2023-09-08T06:51:06;19.60;47.70
4354;DHT22;11018;51.258;6.806;2023-09-08T06:53:31;19.70;47.40
4354;DHT22;11018;51.258;6.806;2023-09-08T06:55:57;19.70;46.40
4354;DHT22;11018;51.258;6.806;2023-09-08T06:58:23;19.80;46.50
4354;DHT22;11018;51.258;6.806;2023-09-08T07:00:49;19.90;46.60
4354;DHT22;11018;51.258;6.806;2023-09-08T07:03:15;20.00;45.90
4354;DHT22;11018;51.258;6.806;2023-09-08T07:05:41;20.20;44.30
4354;DHT22;11018;51.258;6.806;2023-09-08T07:08:07;20.30;44.20
4354;DHT22;11018;51.258;6.806;2023-09-08T07:10:32;20.30;43.70
4354;DHT22;11018;51.258;6.806;2023-09-08T07:12:58;20.50;42.00
4354;DHT22;11018;51.258;6.806;2023-09-08T07:15:23;20.60;40.70
4354;DHT22;11018;51.258;6.806;2023-09-08T07:17:49;20.70;40.90
4354;DHT22;11018;51.258;6.806;2023-09-08T07:20:15;20.80;40.40
4354;DHT22;11018;51.258;6.806;2023-09-08T07:22:40;20.80;39.50
4354;DHT22;11018;51.258;6.806;2023-09-08T07:25:06;21.00;39.50
4354;DHT22;11018;51.258;6.806;2023-09-08T07:27:32;21.10;39.10
4354;DHT22;11018;51.258;6.806;2023-09-08T07:29:58;21.30;38.40
4354;DHT22;11018;51.258;6.806;2023-09-08T07:32:23;21.40;37.40
4354;DHT22;11018;51.258;6.806;2023-09-08T07:34:50;21.50;36.90
4354;DHT22;11018;51.258;6.806;2023-09-08T07:37:21;21.60;37.50
4354;DHT22;11018;51.258;6.806;2023-09-08T07:39:48;21.70;36.60
4354;DHT22;11018;51.258;6.806;2023-09-08T07:42:13;21.90;35.20
4354;DHT22;11018;51.258;6.806;2023-09-08T07:44:39;22.00;33.60
4354;DHT22;11018;51.258;6.806;2023-09-08T07:47:05;22.10;33.10
4354;DHT22;11018;51.258;6.806;2023-09-08T07:49:32;22.20;32.80
4354;DHT22;11018;51.258;6.806;2023-09-08T07:51:58;22.40;31.60
4354;DHT22;11018;51.258;6.806;2023-09-08T07:54:23;22.50;31.40
4354;DHT22;11018;51.258;6.806;2023-09-08T07:56:49;22.60;30.80
4354;DHT22;11018;51.258;6.806;2023-09-08T07:59:14;22.70;30.60
4354;DHT22;11018;51.258;6.806;2023-09-08T08:01:40;22.70;30.30
4354;DHT22;11018;51.258;6.806;2023-09-08T08:04:05;22.90;30.10
4354;DHT22;11018;51.258;6.806;2023-09-08T08:06:31;23.00;29.60
4354;DHT22;11018;51.258;6.806;2023-09-08T08:08:57;23.00;28.80
4354;DHT22;11018;51.258;6.806;2023-09-08T08:11:23;23.10;29.50
4354;DHT22;11018;51.258;6.806;2023-09-08T08:13:48;23.20;28.80
4354;DHT22;11018;51.258;6.806;2023-09-08T08:16:14;23.40;28.70
4354;DHT22;11018;51.258;6.806;2023-09-08T08:18:39;23.40;28.50
4354;DHT22;11018;51.258;6.806;2023-09-08T08:21:05;23.60;28.40
4354;DHT22;11018;51.258;6.806;2023-09-08T08:23:31;23.60;27.40
4354;DHT22;11018;51.258;6.806;2023-09-08T08:25:57;23.70;27.60
4354;DHT22;11018;51.258;6.806;2023-09-08T08:28:23;23.70;27.10
4354;DHT22;11018;51.258;6.806;2023-09-08T08:30:50;23.80;27.50
4354;DHT22;11018;51.258;6.806;2023-09-08T08:33:15;23.80;26.90
4354;DHT22;11018;51.258;6.806;2023-09-08T08:35:41;23.90;26.80
4354;DHT22;11018;51.258;6.806;2023-09-08T08:38:06;24.00;27.50
4354;DHT22;11018;51.258;6.806;2023-09-08T08:40:32;24.10;26.50
4354;DHT22;11018;51.258;6.806;2023-09-08T08:43:00;24.20;25.70
4354;DHT22;11018;51.258;6.806;2023-09-08T08:45:26;24.30;25.40
4354;DHT22;11018;51.258;6.806;2023-09-08T08:47:52;24.30;25.70
4354;DHT22;11018;51.258;6.806;2023-09-08T08:50:19;24.40;24.80
4354;DHT22;11018;51.258;6.806;2023-09-08T08:52:44;24.50;24.80
4354;DHT22;11018;51.258;6.806;2023-09-08T08:55:11;24.60;24.00
4354;DHT22;11018;51.258;6.806;2023-09-08T08:57:38;24.60;24.70
4354;DHT22;11018;51.258;6.806;2023-09-08T09:00:07;24.60;24.80
4354;DHT22;11018;51.258;6.806;2023-09-08T09:02:39;24.70;24.40
4354;DHT22;11018;51.258;6.806;2023-09-08T09:05:05;24.80;24.00
4354;DHT22;11018;51.258;6.806;2023-09-08T09:07:32;24.90;23.60
4354;DHT22;11018;51.258;6.806;2023-09-08T09:09:58;25.00;23.20
4354;DHT22;11018;51.258;6.806;2023-09-08T09:12:24;25.10;24.10
4354;DHT22;11018;51.258;6.806;2023-09-08T09:14:53;25.10;24.00
4354;DHT22;11018;51.258;6.806;2023-09-08T09:17:19;25.30;23.80
4354;DHT22;11018;51.258;6.806;2023-09-08T09:19:44;25.30;22.10
4354;DHT22;11018;51.258;6.806;2023-09-08T09:22:10;25.40;21.90
4354;DHT22;11018;51.258;6.806;2023-09-08T09:24:37;25.40;22.10
4354;DHT22;11018;51.258;6.806;2023-09-08T09:27:07;25.40;21.70
4354;DHT22;11018;51.258;6.806;2023-09-08T09:29:34;25.50;21.40
4354;DHT22;11018;51.258;6.806;2023-09-08T09:32:05;25.60;21.00
4354;DHT22;11018;51.258;6.806;2023-09-08T09:34:34;25.70;21.10
4354;DHT22;11018;51.258;6.806;2023-09-08T09:37:00;25.80;20.80
4354;DHT22;11018;51.258;6.806;2023-09-08T09:39:26;25.90;21.20
4354;DHT22;11018;51.258;6.806;2023-09-08T09:41:55;26.00;21.30
4354;DHT22;11018;51.258;6.806;2023-09-08T09:44:22;26.10;20.80
4354;DHT22;11018;51.258;6.806;2023-09-08T09:46:50;26.00;21.10
4354;DHT22;11018;51.258;6.806;2023-09-08T09:49:17;26.10;20.60
4354;DHT22;11018;51.258;6.806;2023-09-08T09:51:47;26.20;20.20
4354;DHT22;11018;51.258;6.806;2023-09-08T09:54:13;26.30;20.40
4354;DHT22;11018;51.258;6.806;2023-09-08T09:56:40;26.40;19.90
4354;DHT22;11018;51.258;6.806;2023-09-08T09:59:10;26.50;19.20
4354;DHT22;11018;51.258;6.806;2023-09-08T10:01:37;26.50;19.50
4354;DHT22;11018;51.258;6.806;2023-09-08T10:04:03;26.50;19.90
4354;DHT22;11018;51.258;6.806;2023-09-08T10:06:34;26.60;19.70
4354;DHT22;11018;51.258;6.806;2023-09-08T10:09:01;26.70;19.60
4354;DHT22;11018;51.258;6.806;2023-09-08T10:11:33;26.80;20.00
4354;DHT22;11018;51.258;6.806;2023-09-08T10:13:59;26.90;19.90
4354;DHT22;11018;51.258;6.806;2023-09-08T10:16:27;27.00;19.40
4354;DHT22;11018;51.258;6.806;2023-09-08T10:18:55;27.00;18.80
4354;DHT22;11018;51.258;6.806;2023-09-08T10:21:24;27.10;18.30
4354;DHT22;11018;51.258;6.806;2023-09-08T10:23:59;27.30;18.70
4354;DHT22;11018;51.258;6.806;2023-09-08T10:26:30;27.20;18.10
4354;DHT22;11018;51.258;6.806;2023-09-08T10:28:57;27.40;18.10
4354;DHT22;11018;51.258;6.806;2023-09-08T10:31:26;27.40;18.00
4354;DHT22;11018;51.258;6.806;2023-09-08T10:33:56;27.50;18.00
4354;DHT22;11018;51.258;6.806;2023-09-08T10:36:24;27.50;17.80
4354;DHT22;11018;51.258;6.806;2023-09-08T10:38:49;27.60;17.70
4354;DHT22;11018;51.258;6.806;2023-09-08T10:43:46;27.60;18.10
4354;DHT22;11018;51.258;6.806;2023-09-08T10:46:24;27.60;17.70
4354;DHT22;11018;51.258;6.806;2023-09-08T10:48:53;27.80;17.10
4354;DHT22;11018;51.258;6.806;2023-09-08T10:51:19;27.70;16.90
4354;DHT22;11018;51.258;6.806;2023-09-08T10:53:47;27.70;17.20
4354;DHT22;11018;51.258;6.806;2023-09-08T10:56:13;27.70;17.80
4354;DHT22;11018;51.258;6.806;2023-09-08T10:58:39;27.80;17.40
4354;DHT22;11018;51.258;6.806;2023-09-08T11:01:12;28.00;18.10
4354;DHT22;11018;51.258;6.806;2023-09-08T11:06:05;28.10;17.30
4354;DHT22;11018;51.258;6.806;2023-09-08T11:08:32;28.10;17.10
4354;DHT22;11018;51.258;6.806;2023-09-08T11:10:58;28.00;17.80
4354;DHT22;11018;51.258;6.806;2023-09-08T11:13:24;28.20;17.90
4354;DHT22;11018;51.258;6.806;2023-09-08T11:15:53;28.20;17.10
4354;DHT22;11018;51.258;6.806;2023-09-08T11:18:28;28.20;16.80
4354;DHT22;11018;51.258;6.806;2023-09-08T11:20:54;28.30;16.70
4354;DHT22;11018;51.258;6.806;2023-09-08T11:23:20;28.30;16.70
4354;DHT22;11018;51.258;6.806;2023-09-08T11:25:46;28.40;16.70
4354;DHT22;11018;51.258;6.806;2023-09-08T11:28:12;28.40;16.30
4354;DHT22;11018;51.258;6.806;2023-09-08T11:30:41;28.40;17.30
4354;DHT22;11018;51.258;6.806;2023-09-08T11:33:20;28.60;16.70
4354;DHT22;11018;51.258;6.806;2023-09-08T11:35:53;28.70;15.90
4354;DHT22;11018;51.258;6.806;2023-09-08T11:38:28;28.70;16.00
4354;DHT22;11018;51.258;6.806;2023-09-08T11:40:56;28.70;16.50
4354;DHT22;11018;51.258;6.806;2023-09-08T11:43:22;28.70;16.20
4354;DHT22;11018;51.258;6.806;2023-09-08T11:45:48;28.70;16.10
4354;DHT22;11018;51.258;6.806;2023-09-08T11:48:14;28.60;16.40
4354;DHT22;11018;51.258;6.806;2023-09-08T11:50:43;28.70;16.40
4354;DHT22;11018;51.258;6.806;2023-09-08T11:53:09;28.80;16.00
4354;DHT22;11018;51.258;6.806;2023-09-08T11:55:35;28.80;15.60
4354;DHT22;11018;51.258;6.806;2023-09-08T11:58:02;29.00;16.20
4354;DHT22;11018;51.258;6.806;2023-09-08T12:00:28;28.90;15.40
4354;DHT22;11018;51.258;6.806;2023-09-08T12:02:55;28.80;15.70
4354;DHT22;11018;51.258;6.806;2023-09-08T12:05:25;29.00;16.40
4354;DHT22;11018;51.258;6.806;2023-09-08T12:07:55;29.10;16.10
4354;DHT22;11018;51.258;6.806;2023-09-08T12:10:22;29.00;15.70
4354;DHT22;11018;51.258;6.806;2023-09-08T12:12:50;29.10;16.10
4354;DHT22;11018;51.258;6.806;2023-09-08T12:15:38;29.20;16.20
4354;DHT22;11018;51.258;6.806;2023-09-08T12:20:32;29.30;15.80
4354;DHT22;11018;51.258;6.806;2023-09-08T12:23:00;29.40;15.20
4354;DHT22;11018;51.258;6.806;2023-09-08T12:25:27;29.50;15.50
4354;DHT22;11018;51.258;6.806;2023-09-08T12:27:54;29.60;15.20
4354;DHT22;11018;51.258;6.806;2023-09-08T12:30:21;29.70;14.60
4354;DHT22;11018;51.258;6.806;2023-09-08T12:32:48;29.70;14.20
4354;DHT22;11018;51.258;6.806;2023-09-08T12:35:22;29.70;14.40
4354;DHT22;11018;51.258;6.806;2023-09-08T12:37:59;29.70;14.30
4354;DHT22;11018;51.258;6.806;2023-09-08T12:40:29;29.80;13.10
4354;DHT22;11018;51.258;6.806;2023-09-08T12:42:54;29.70;13.30
4354;DHT22;11018;51.258;6.806;2023-09-08T12:45:21;29.90;13.30
4354;DHT22;11018;51.258;6.806;2023-09-08T12:47:48;29.90;12.50
4354;DHT22;11018;51.258;6.806;2023-09-08T12:50:13;30.10;12.80
4354;DHT22;11018;51.258;6.806;2023-09-08T12:52:39;30.10;13.00
4354;DHT22;11018;51.258;6.806;2023-09-08T12:55:05;30.20;12.40
4354;DHT22;11018;51.258;6.806;2023-09-08T12:57:31;30.20;12.20
4354;DHT22;11018;51.258;6.806;2023-09-08T12:59:56;30.20;13.20
4354;DHT22;11018;51.258;6.806;2023-09-08T13:02:22;30.30;13.00
4354;DHT22;11018;51.258;6.806;2023-09-08T13:04:47;30.30;12.90
4354;DHT22;11018;51.258;6.806;2023-09-08T13:07:17;30.30;12.80
4354;DHT22;11018;51.258;6.806;2023-09-08T13:09:43;30.40;12.10
4354;DHT22;11018;51.258;6.806;2023-09-08T13:12:09;30.50;11.90
4354;DHT22;11018;51.258;6.806;2023-09-08T13:14:35;30.60;12.20
4354;DHT22;11018;51.258;6.806;2023-09-08T13:17:01;30.70;11.90
4354;DHT22;11018;51.258;6.806;2023-09-08T13:19:27;30.70;12.00
4354;DHT22;11018;51.258;6.806;2023-09-08T13:21:52;30.70;11.10
4354;DHT22;11018;51.258;6.806;2023-09-08T13:24:18;30.70;11.70
4354;DHT22;11018;51.258;6.806;2023-09-08T13:26:46;30.70;11.50
4354;DHT22;11018;51.258;6.806;2023-09-08T13:29:11;30.60;11.90
4354;DHT22;11018;51.258;6.806;2023-09-08T13:31:37;30.70;11.90
4354;DHT22;11018;51.258;6.806;2023-09-08T13:34:02;31.50;10.80
4354;DHT22;11018;51.258;6.806;2023-09-08T13:36:28;32.10;10.60
4354;DHT22;11018;51.258;6.806;2023-09-08T13:38:53;32.70;8.00
4354;DHT22;11018;51.258;6.806;2023-09-08T13:41:19;33.10;8.80
4354;DHT22;11018;51.258;6.806;2023-09-08T13:43:44;33.40;6.80
4354;DHT22;11018;51.258;6.806;2023-09-08T13:46:10;33.90;6.70
4354;DHT22;11018;51.258;6.806;2023-09-08T13:48:35;34.30;6.00
4354;DHT22;11018;51.258;6.806;2023-09-08T13:51:04;34.80;4.70
4354;DHT22;11018;51.258;6.806;2023-09-08T13:53:29;35.10;7.20
4354;DHT22;11018;51.258;6.806;2023-09-08T13:55:58;35.00;6.40
4354;DHT22;11018;51.258;6.806;2023-09-08T13:58:24;35.00;4.30
4354;DHT22;11018;51.258;6.806;2023-09-08T14:00:50;35.10;2.70
4354;DHT22;11018;51.258;6.806;2023-09-08T14:03:17;35.10;3.70
4354;DHT22;11018;51.258;6.806;2023-09-08T14:05:43;35.40;2.70
4354;DHT22;11018;51.258;6.806;2023-09-08T14:08:09;35.50;3.40
4354;DHT22;11018;51.258;6.806;2023-09-08T14:10:35;35.50;2.00
4354;DHT22;11018;51.258;6.806;2023-09-08T14:13:01;35.90;1.50
4354;DHT22;11018;51.258;6.806;2023-09-08T14:15:26;36.20;2.40
4354;DHT22;11018;51.258;6.806;2023-09-08T14:17:52;36.00;2.20
4354;DHT22;11018;51.258;6.806;2023-09-08T14:20:18;36.20;1.70
4354;DHT22;11018;51.258;6.806;2023-09-08T14:22:44;36.40;2.00
4354;DHT22;11018;51.258;6.806;2023-09-08T14:25:09;36.40;1.00
4354;DHT22;11018;51.258;6.806;2023-09-08T14:27:35;36.50;1.70
4354;DHT22;11018;51.258;6.806;2023-09-08T14:30:03;36.60;1.50
4354;DHT22;11018;51.258;6.806;2023-09-08T14:32:29;36.90;1.00
4354;DHT22;11018;51.258;6.806;2023-09-08T14:34:55;37.10;1.00
4354;DHT22;11018;51.258;6.806;2023-09-08T14:37:21;37.10;2.10
4354;DHT22;11018;51.258;6.806;2023-09-08T14:39:47;37.10;1.00
4354;DHT22;11018;51.258;6.806;2023-09-08T14:42:12;37.50;1.00
4354;DHT22;11018;51.258;6.806;2023-09-08T14:44:39;37.50;1.00
4354;DHT22;11018;51.258;6.806;2023-09-08T14:47:04;37.70;1.00
4354;DHT22;11018;51.258;6.806;2023-09-08T14:49:30;37.90;1.00
4354;DHT22;11018;51.258;6.806;2023-09-08T14:51:55;37.80;1.00
4354;DHT22;11018;51.258;6.806;2023-09-08T14:54:21;37.90;1.00
4354;DHT22;11018;51.258;6.806;2023-09-08T14:56:47;37.80;1.00
4354;DHT22;11018;51.258;6.806;2023-09-08T14:59:12;37.90;1.00
4354;DHT22;11018;51.258;6.806;2023-09-08T15:01:38;37.80;1.00
4354;DHT22;11018;51.258;6.806;2023-09-08T15:04:06;37.80;1.00
4354;DHT22;11018;51.258;6.806;2023-09-08T15:06:31;38.10;1.00
4354;DHT22;11018;51.258;6.806;2023-09-08T15:08:57;38.40;1.00
4354;DHT22;11018;51.258;6.806;2023-09-08T15:11:22;37.90;1.00
4354;DHT22;11018;51.258;6.806;2023-09-08T15:13:48;36.90;1.00
4354;DHT22;11018;51.258;6.806;2023-09-08T15:16:13;36.20;1.20
4354;DHT22;11018;51.258;6.806;2023-09-08T15:18:40;36.60;1.00
4354;DHT22;11018;51.258;6.806;2023-09-08T15:21:05;37.20;1.00
4354;DHT22;11018;51.258;6.806;2023-09-08T15:23:31;37.20;1.00
4354;DHT22;11018;51.258;6.806;2023-09-08T15:25:58;37.40;1.00
4354;DHT22;11018;51.258;6.806;2023-09-08T15:28:24;37.60;1.00
4354;DHT22;11018;51.258;6.806;2023-09-08T15:30:50;38.20;1.00
4354;DHT22;11018;51.258;6.806;2023-09-08T15:33:17;37.90;1.00
4354;DHT22;11018;51.258;6.806;2023-09-08T15:35:43;38.10;1.00
4354;DHT22;11018;51.258;6.806;2023-09-08T15:38:09;38.50;1.00
4354;DHT22;11018;51.258;6.806;2023-09-08T15:40:36;38.30;1.00
4354;DHT22;11018;51.258;6.806;2023-09-08T15:43:02;38.50;1.00
4354;DHT22;11018;51.258;6.806;2023-09-08T15:45:28;37.60;1.00
4354;DHT22;11018;51.258;6.806;2023-09-08T15:47:53;37.70;1.00
4354;DHT22;11018;51.258;6.806;2023-09-08T15:50:19;37.80;1.00